createdAt,value
2023-04-12T00:01:46.088Z,100550.66
2023-04-12T00:04:14.533Z,100540.63
2023-04-12T00:06:42.877Z,100528.03
2023-04-12T00:09:11.231Z,100518.16
2023-04-12T00:11:39.252Z,100515.59
2023-04-12T00:14:08.453Z,100512.72
2023-04-12T00:16:38.200Z,100497.41
2023-04-12T00:19:06.615Z,100495.19
2023-04-12T00:21:34.487Z,100496.91
2023-04-12T00:24:02.519Z,100488.06
2023-04-12T00:26:30.290Z,100484.31
2023-04-12T00:28:58.314Z,100474.09
2023-04-12T00:31:27.543Z,100480.56
2023-04-12T00:33:55.995Z,100469.84
2023-04-12T00:36:24.273Z,100469.50
2023-04-12T00:38:51.993Z,100462.88
2023-04-12T00:41:19.922Z,100461.69
2023-04-12T00:43:48.110Z,100456.59
2023-04-12T00:46:17.504Z,100451.16
2023-04-12T00:48:48.147Z,100452.16
2023-04-12T00:51:18.158Z,100438.19
2023-04-12T00:53:46.386Z,100438.22
2023-04-12T00:56:14.428Z,100430.69
2023-04-12T00:58:42.291Z,100415.75
2023-04-12T01:01:10.716Z,100422.88
2023-04-12T01:03:43.295Z,100412.34
2023-04-12T01:06:17.448Z,100407.72
2023-04-12T01:08:55.816Z,100399.53
2023-04-12T01:11:32.339Z,100401.06
2023-04-12T01:14:09.581Z,100389.66
2023-04-12T01:16:41.091Z,100386.53
2023-04-12T01:19:38.111Z,100382.34
2023-04-12T01:22:18.227Z,100372.59
2023-04-12T01:24:57.556Z,100371.59
2023-04-12T01:27:40.645Z,100362.75
2023-04-12T01:30:12.997Z,100356.13
2023-04-12T01:32:45.518Z,100338.25
2023-04-12T01:35:14.891Z,100337.75
2023-04-12T01:37:43.909Z,100327.91
2023-04-12T01:40:13.988Z,100326.25
2023-04-12T01:42:43.253Z,100328.47
2023-04-12T01:45:11.817Z,100327.31
2023-04-12T01:47:40.187Z,100329.53
2023-04-12T01:50:16.152Z,100318.72
2023-04-12T01:52:51.087Z,100315.25
2023-04-12T01:55:22.018Z,100304.69
2023-04-12T01:57:53.043Z,100298.75
2023-04-12T02:00:21.929Z,100296.88
2023-04-12T02:02:50.128Z,100276.97
2023-04-12T02:05:19.005Z,100278.38
2023-04-12T02:07:48.098Z,100277.56
2023-04-12T02:10:29.467Z,100261.38
2023-04-12T02:13:01.439Z,100254.94
2023-04-12T02:15:30.291Z,100255.31
2023-04-12T02:17:59.712Z,100242.22
2023-04-12T02:20:27.923Z,100227.41
2023-04-12T02:22:56.239Z,100234.75
2023-04-12T02:25:24.264Z,100225.25
2023-04-12T02:27:52.233Z,100224.22
2023-04-12T02:30:22.787Z,100233.41
2023-04-12T02:32:53.878Z,100224.09
2023-04-12T02:35:28.714Z,100217.41
2023-04-12T02:38:03.926Z,100208.91
2023-04-12T02:40:31.851Z,100202.97
2023-04-12T02:42:59.809Z,100190.66
2023-04-12T02:45:29.590Z,100188.28
2023-04-12T02:47:58.289Z,100179.19
2023-04-12T02:50:29.996Z,100173.44
2023-04-12T02:53:05.441Z,100169.72
2023-04-12T02:55:33.479Z,100158.00
2023-04-12T02:58:04.192Z,100155.13
2023-04-12T03:00:34.813Z,100151.03
2023-04-12T03:03:04.148Z,100141.13
2023-04-12T03:05:33.434Z,100135.34
2023-04-12T03:08:01.712Z,100130.03
2023-04-12T03:10:39.619Z,100120.94
2023-04-12T03:13:07.471Z,100118.16
2023-04-12T03:15:48.375Z,100108.63
2023-04-12T03:18:17.227Z,100111.31
2023-04-12T03:20:48.679Z,100100.63
2023-04-12T03:23:17.971Z,100094.59
2023-04-12T03:25:50.814Z,100087.25
2023-04-12T03:28:32.189Z,100087.25
2023-04-12T03:31:03.021Z,100081.31
2023-04-12T03:33:40.676Z,100077.56
2023-04-12T03:36:17.346Z,100085.72
2023-04-12T03:38:48.197Z,100066.88
2023-04-12T03:41:16.677Z,100067.28
2023-04-12T03:43:44.381Z,100055.22
2023-04-12T03:46:19.728Z,100040.72
2023-04-12T03:48:55.756Z,100037.56
2023-04-12T03:51:27.020Z,100031.09
2023-04-12T03:54:02.805Z,100025.75
2023-04-12T03:56:36.705Z,100020.03
2023-04-12T03:59:08.760Z,100010.38
2023-04-12T04:01:39.902Z,100001.28
2023-04-12T04:04:08.104Z,99991.50
2023-04-12T04:06:36.553Z,99982.38
2023-04-12T04:09:05.603Z,99973.75
2023-04-12T04:11:37.745Z,99978.63
2023-04-12T04:14:08.371Z,99980.50
2023-04-12T04:16:36.837Z,99971.66
2023-04-12T04:19:08.314Z,99966.31
2023-04-12T04:21:36.123Z,99961.78
2023-04-12T04:24:07.060Z,99955.75
2023-04-12T04:26:39.437Z,99962.53
2023-04-12T04:29:13.493Z,99950.31
2023-04-12T04:31:41.407Z,99962.06
2023-04-12T04:34:12.852Z,99962.28
2023-04-12T04:36:45.039Z,99950.75
2023-04-12T04:39:17.677Z,99953.44
2023-04-12T04:41:46.683Z,99945.16
2023-04-12T04:44:22.532Z,99950.19
2023-04-12T04:47:00.744Z,99946.91
2023-04-12T04:49:30.057Z,99951.97
2023-04-12T04:52:05.013Z,99946.13
2023-04-12T04:54:33.210Z,99952.72
2023-04-12T04:57:03.035Z,99935.13
2023-04-12T04:59:31.184Z,99937.78
2023-04-12T05:02:12.086Z,99934.78
2023-04-12T05:04:41.464Z,99929.09
2023-04-12T05:07:13.190Z,99924.16
2023-04-12T05:09:43.624Z,99917.44
2023-04-12T05:12:11.804Z,99909.19
2023-04-12T05:14:47.289Z,99909.47
2023-04-12T05:17:19.217Z,99903.19
2023-04-12T05:19:48.506Z,99900.91
2023-04-12T05:22:20.275Z,99904.03
2023-04-12T05:24:48.230Z,99892.75
2023-04-12T05:27:17.118Z,99893.28
2023-04-12T05:29:47.152Z,99888.47
2023-04-12T05:32:16.650Z,99897.00
2023-04-12T05:34:44.644Z,99882.81
2023-04-12T05:37:13.850Z,99878.84
2023-04-12T05:39:41.624Z,99878.31
2023-04-12T05:42:11.308Z,99874.13
2023-04-12T05:44:40.270Z,99870.91
2023-04-12T05:47:12.130Z,99872.28
2023-04-12T05:49:40.105Z,99870.44
2023-04-12T05:52:10.851Z,99872.56
2023-04-12T05:54:40.296Z,99856.09
2023-04-12T05:57:10.791Z,99857.91
2023-04-12T05:59:38.570Z,99850.38
2023-04-12T06:02:06.403Z,99853.63
2023-04-12T06:04:48.778Z,99856.69
2023-04-12T06:07:19.381Z,99854.28
2023-04-12T06:09:49.785Z,99833.88
2023-04-12T06:12:18.482Z,99844.44
2023-04-12T06:14:46.615Z,99840.06
2023-04-12T06:17:14.498Z,99836.59
2023-04-12T06:19:43.066Z,99832.66
2023-04-12T06:22:10.845Z,99834.38
2023-04-12T06:24:40.670Z,99823.28
2023-04-12T06:27:11.447Z,99830.59
2023-04-12T06:29:39.260Z,99832.13
2023-04-12T06:32:07.480Z,99826.75
2023-04-12T06:34:36.133Z,99821.78
2023-04-12T06:37:18.471Z,99823.72
2023-04-12T06:39:46.192Z,99808.69
2023-04-12T06:42:16.588Z,99810.06
2023-04-12T06:44:44.330Z,99802.19
2023-04-12T06:47:12.261Z,99798.06
2023-04-12T06:49:40.514Z,99792.81
2023-04-12T06:52:08.460Z,99797.72
2023-04-12T06:54:37.632Z,99796.31
2023-04-12T06:57:09.394Z,99796.31
2023-04-12T06:59:38.482Z,99796.59
2023-04-12T07:02:07.696Z,99794.47
2023-04-12T07:04:35.690Z,99798.72
2023-04-12T07:07:03.537Z,99797.75
2023-04-12T07:09:32.250Z,99792.66
2023-04-12T07:12:00.163Z,99780.41
2023-04-12T07:14:27.971Z,99779.34
2023-04-12T07:16:57.633Z,99786.09
2023-04-12T07:19:25.484Z,99782.66
2023-04-12T07:21:53.290Z,99784.50
2023-04-12T07:24:21.128Z,99777.47
2023-04-12T07:26:48.914Z,99763.47
2023-04-12T07:29:17.069Z,99770.66
2023-04-12T07:31:45.665Z,99772.25
2023-04-12T07:34:14.958Z,99768.41
2023-04-12T07:36:44.051Z,99772.25
2023-04-12T07:39:12.918Z,99777.38
2023-04-12T07:41:42.256Z,99764.75
2023-04-12T07:44:10.053Z,99767.03
2023-04-12T07:46:37.842Z,99762.03
2023-04-12T07:49:05.947Z,99762.09
2023-04-12T07:51:35.096Z,99759.38
2023-04-12T07:54:03.733Z,99756.13
2023-04-12T07:56:31.663Z,99762.63
2023-04-12T07:58:59.912Z,99760.53
2023-04-12T08:01:28.483Z,99745.47
2023-04-12T08:03:56.933Z,99743.53
2023-04-12T08:06:26.825Z,99734.34
2023-04-12T08:08:57.800Z,99732.66
2023-04-12T08:11:25.633Z,99735.00
2023-04-12T08:13:53.512Z,99730.84
2023-04-12T08:16:21.499Z,99730.47
2023-04-12T08:18:49.324Z,99729.63
2023-04-12T08:21:17.119Z,99727.59
2023-04-12T08:23:45.138Z,99735.22
2023-04-12T08:26:14.436Z,99739.75
2023-04-12T08:28:42.768Z,99742.94
2023-04-12T08:31:11.481Z,99734.91
2023-04-12T08:33:39.218Z,99732.66
2023-04-12T08:36:08.159Z,99736.06
2023-04-12T08:38:45.018Z,99730.41
2023-04-12T08:41:15.336Z,99732.31
2023-04-12T08:43:46.244Z,99733.25
2023-04-12T08:46:16.490Z,99730.88
2023-04-12T08:48:46.570Z,99732.13
2023-04-12T08:51:16.098Z,99735.75
2023-04-12T08:53:44.352Z,99725.34
2023-04-12T08:56:13.457Z,99728.66
2023-04-12T08:58:48.935Z,99724.63
2023-04-12T09:01:18.692Z,99726.19
2023-04-12T09:03:47.518Z,99734.19
2023-04-12T09:06:15.697Z,99731.00
2023-04-12T09:08:54.457Z,99724.72
2023-04-12T09:11:24.437Z,99715.59
2023-04-12T09:13:54.615Z,99718.91
2023-04-12T09:16:36.434Z,99710.84
2023-04-12T09:19:04.646Z,99722.63
2023-04-12T09:21:34.713Z,99718.44
2023-04-12T09:24:12.369Z,99726.19
2023-04-12T09:26:42.096Z,99724.41
2023-04-12T09:29:24.128Z,99717.41
2023-04-12T09:32:01.568Z,99717.88
2023-04-12T09:34:30.004Z,99724.53
2023-04-12T09:36:58.908Z,99700.78
2023-04-12T09:39:34.112Z,99702.31
2023-04-12T09:42:08.913Z,99698.75
2023-04-12T09:44:42.077Z,99708.56
2023-04-12T09:47:10.013Z,99695.56
2023-04-12T09:49:39.753Z,99688.97
2023-04-12T09:52:08.862Z,99699.00
2023-04-12T09:54:40.387Z,99691.78
2023-04-12T09:57:09.308Z,99686.72
2023-04-12T09:59:39.540Z,99683.16
2023-04-12T10:02:16.645Z,99689.44
2023-04-12T10:04:45.630Z,99693.34
2023-04-12T10:07:15.184Z,99693.81
2023-04-12T10:09:43.525Z,99689.69
2023-04-12T10:12:11.432Z,99687.13
2023-04-12T10:14:40.433Z,99691.47
2023-04-12T10:17:12.172Z,99692.66
2023-04-12T10:19:41.011Z,99699.38
2023-04-12T10:22:08.838Z,99686.22
2023-04-12T10:24:37.002Z,99680.19
2023-04-12T10:27:05.605Z,99684.28
2023-04-12T10:29:37.082Z,99684.25
2023-04-12T10:32:22.965Z,99675.47
2023-04-12T10:34:56.480Z,99677.38
2023-04-12T10:37:58.940Z,99674.38
2023-04-12T10:40:27.464Z,99666.66
2023-04-12T10:43:26.417Z,99660.66
2023-04-12T10:45:54.584Z,99659.13
2023-04-12T10:48:33.036Z,99662.25
2023-04-12T10:51:15.267Z,99662.16
2023-04-12T10:53:43.290Z,99659.84
2023-04-12T10:56:37.465Z,99661.44
2023-04-12T10:59:06.379Z,99656.81
2023-04-12T11:01:41.336Z,99656.47
2023-04-12T11:04:17.024Z,99654.25
2023-04-12T11:07:11.252Z,99658.09
2023-04-12T11:10:03.027Z,99661.16
2023-04-12T11:12:35.537Z,99649.13
2023-04-12T11:15:06.192Z,99659.88
2023-04-12T11:17:54.465Z,99653.53
2023-04-12T11:20:24.168Z,99640.50
2023-04-12T11:22:53.949Z,99649.84
2023-04-12T11:25:24.130Z,99645.88
2023-04-12T11:27:53.562Z,99648.31
2023-04-12T11:30:23.704Z,99651.41
2023-04-12T11:32:51.793Z,99648.88
2023-04-12T11:35:24.462Z,99647.63
2023-04-12T11:37:53.829Z,99644.81
2023-04-12T11:40:23.426Z,99638.81
2023-04-12T11:42:51.354Z,99638.59
2023-04-12T11:45:20.962Z,99644.38
2023-04-12T11:47:49.214Z,99642.50
2023-04-12T11:50:29.789Z,99648.03
2023-04-12T11:53:10.894Z,99643.31
2023-04-12T11:55:39.047Z,99642.59
2023-04-12T11:58:07.614Z,99648.75
2023-04-12T12:00:36.431Z,99646.13
2023-04-12T12:03:08.359Z,99666.53
2023-04-12T12:05:38.733Z,99644.91
2023-04-12T12:08:08.918Z,99644.72
2023-04-12T12:10:52.011Z,99642.81
2023-04-12T12:13:25.452Z,99646.56
2023-04-12T12:15:53.966Z,99642.81
2023-04-12T12:18:27.574Z,99645.72
2023-04-12T12:20:56.573Z,99652.50
2023-04-12T12:23:33.312Z,99648.28
2023-04-12T12:26:17.580Z,99655.81
2023-04-12T12:28:51.078Z,99657.72
2023-04-12T12:31:21.669Z,99656.47
2023-04-12T12:33:49.797Z,99664.22
2023-04-12T12:36:21.149Z,99660.97
2023-04-12T12:38:54.333Z,99662.22
2023-04-12T12:41:23.545Z,99664.06
2023-04-12T12:43:53.425Z,99667.97
2023-04-12T12:46:21.746Z,99669.69
2023-04-12T12:48:49.912Z,99654.53
2023-04-12T12:51:19.832Z,99669.09
2023-04-12T12:53:48.558Z,99667.84
2023-04-12T12:56:18.026Z,99665.50
2023-04-12T12:58:46.710Z,99654.84
2023-04-12T13:01:14.784Z,99655.47
2023-04-12T13:03:42.799Z,99654.69
2023-04-12T13:06:10.924Z,99666.81
2023-04-12T13:08:38.735Z,99672.47
2023-04-12T13:11:07.161Z,99667.91
2023-04-12T13:13:37.245Z,99656.03
2023-04-12T13:16:06.147Z,99661.09
2023-04-12T13:18:34.198Z,99658.16
2023-04-12T13:21:02.299Z,99667.53
2023-04-12T13:23:30.858Z,99666.06
2023-04-12T13:25:59.017Z,99664.94
2023-04-12T13:28:26.822Z,99670.09
2023-04-12T13:30:57.393Z,99662.53
2023-04-12T13:33:25.490Z,99666.75
2023-04-12T13:35:53.469Z,99664.28
2023-04-12T13:38:21.339Z,99662.13
2023-04-12T13:40:49.250Z,99680.38
2023-04-12T13:43:17.707Z,99672.56
2023-04-12T13:45:45.772Z,99664.25
2023-04-12T13:48:15.045Z,99661.06
2023-04-12T13:50:42.982Z,99656.94
2023-04-12T13:53:10.799Z,99662.47
2023-04-12T13:55:38.831Z,99667.41
2023-04-12T13:58:06.924Z,99666.19
2023-04-12T14:00:34.809Z,99662.53
2023-04-12T14:03:02.848Z,99654.75
2023-04-12T14:05:32.135Z,99671.34
2023-04-12T14:08:00.114Z,99659.72
2023-04-12T14:10:28.117Z,99661.28
2023-04-12T14:12:56.375Z,99663.81
2023-04-12T14:15:24.234Z,99660.56
2023-04-12T14:17:52.312Z,99654.69
2023-04-12T14:20:20.987Z,99654.34
2023-04-12T14:22:50.617Z,99659.66
2023-04-12T14:25:18.939Z,99662.59
2023-04-12T14:27:46.839Z,99660.84
2023-04-12T14:30:17.011Z,99659.03
2023-04-12T14:32:47.449Z,99664.47
2023-04-12T14:35:15.866Z,99668.22
2023-04-12T14:37:44.190Z,99663.13
2023-04-12T14:40:13.781Z,99653.03
2023-04-12T14:42:41.678Z,99662.94
2023-04-12T14:45:11.061Z,99656.16
2023-04-12T14:47:39.186Z,99657.16
2023-04-12T14:50:08.284Z,99655.00
2023-04-12T14:52:36.339Z,99651.28
2023-04-12T14:55:04.921Z,99648.09
2023-04-12T14:57:35.197Z,99657.13
2023-04-12T15:00:04.459Z,99648.44
2023-04-12T15:02:32.835Z,99650.00
2023-04-12T15:05:04.123Z,99651.72
2023-04-12T15:07:32.129Z,99649.88
2023-04-12T15:10:00.687Z,99651.13
2023-04-12T15:12:29.107Z,99649.03
2023-04-12T15:14:58.384Z,99650.94
2023-04-12T15:17:26.613Z,99649.47
2023-04-12T15:19:54.738Z,99661.66
2023-04-12T15:22:25.837Z,99661.03
2023-04-12T15:24:53.783Z,99661.00
2023-04-12T15:27:21.747Z,99658.28
2023-04-12T15:29:49.545Z,99653.44
2023-04-12T15:32:18.884Z,99654.91
2023-04-12T15:34:46.984Z,99654.50
2023-04-12T15:37:15.861Z,99654.06
2023-04-12T15:39:43.780Z,99669.84
2023-04-12T15:42:11.755Z,99667.47
2023-04-12T15:44:42.761Z,99670.47
2023-04-12T15:47:12.066Z,99667.59
2023-04-12T15:49:41.689Z,99661.69
2023-04-12T15:52:09.523Z,99657.75
2023-04-12T15:54:43.529Z,99649.69
2023-04-12T15:57:11.944Z,99659.81
2023-04-12T15:59:41.767Z,99658.13
2023-04-12T16:02:10.319Z,99669.25
2023-04-12T16:04:39.391Z,99673.38
2023-04-12T16:07:09.046Z,99670.28
2023-04-12T16:09:39.634Z,99677.84
2023-04-12T16:12:07.754Z,99672.06
2023-04-12T16:14:36.872Z,99669.06
2023-04-12T16:17:05.065Z,99665.13
2023-04-12T16:19:33.374Z,99678.75
2023-04-12T16:22:01.888Z,99684.41
2023-04-12T16:24:31.529Z,99683.28
2023-04-12T16:26:59.342Z,99679.94
2023-04-12T16:29:27.085Z,99679.34
2023-04-12T16:31:55.060Z,99687.56
2023-04-12T16:34:23.389Z,99689.25
2023-04-12T16:36:52.985Z,99689.22
2023-04-12T16:39:20.743Z,99688.59
2023-04-12T16:41:49.883Z,99693.22
2023-04-12T16:44:18.902Z,99696.31
2023-04-12T16:46:47.756Z,99696.13
2023-04-12T16:49:17.610Z,99697.28
2023-04-12T16:51:46.942Z,99693.34
2023-04-12T16:54:14.930Z,99701.53
2023-04-12T16:56:42.791Z,99695.28
2023-04-12T16:59:12.023Z,99696.72
2023-04-12T17:01:40.212Z,99701.97
2023-04-12T17:04:08.279Z,99700.31
2023-04-12T17:06:36.147Z,99689.84
2023-04-12T17:09:04.992Z,99694.47
2023-04-12T17:11:33.244Z,99699.50
2023-04-12T17:14:01.176Z,99691.16
2023-04-12T17:16:30.674Z,99698.22
2023-04-12T17:18:59.089Z,99693.72
2023-04-12T17:21:27.847Z,99696.06
2023-04-12T17:23:56.569Z,99685.72
2023-04-12T17:26:27.347Z,99695.91
2023-04-12T17:28:56.939Z,99693.28
2023-04-12T17:31:27.012Z,99694.06
2023-04-12T17:33:56.866Z,99694.22
2023-04-12T17:36:24.929Z,99699.44
2023-04-12T17:38:54.865Z,99702.41
2023-04-12T17:41:23.193Z,99700.97
2023-04-12T17:43:51.248Z,99699.53
2023-04-12T17:46:19.074Z,99703.41
2023-04-12T17:48:47.459Z,99707.03
2023-04-12T17:51:16.749Z,99710.22
2023-04-12T17:53:45.716Z,99720.28
2023-04-12T17:56:13.982Z,99713.13
2023-04-12T17:58:42.274Z,99710.81
2023-04-12T18:01:11.993Z,99710.28
2023-04-12T18:03:40.151Z,99719.69
2023-04-12T18:06:08.620Z,99719.06
2023-04-12T18:08:38.523Z,99719.44
2023-04-12T18:11:08.012Z,99723.75
2023-04-12T18:13:35.852Z,99717.94
2023-04-12T18:16:04.102Z,99720.66
2023-04-12T18:18:31.961Z,99713.50
2023-04-12T18:20:59.812Z,99719.00
2023-04-12T18:23:27.704Z,99728.31
2023-04-12T18:25:56.952Z,99732.66
2023-04-12T18:28:25.800Z,99731.59
2023-04-12T18:30:54.998Z,99732.78
2023-04-12T18:33:24.677Z,99742.41
2023-04-12T18:35:53.097Z,99735.47
2023-04-12T18:38:20.823Z,99739.44
2023-04-12T18:40:49.100Z,99743.69
2023-04-12T18:43:18.310Z,99739.94
2023-04-12T18:45:46.181Z,99740.38
2023-04-12T18:48:14.353Z,99739.13
2023-04-12T18:50:42.333Z,99734.16
2023-04-12T18:53:10.934Z,99736.09
2023-04-12T18:55:38.806Z,99736.59
2023-04-12T18:58:06.996Z,99736.66
2023-04-12T19:00:36.421Z,99739.00
2023-04-12T19:03:04.651Z,99738.94
2023-04-12T19:05:32.932Z,99739.78
2023-04-12T19:08:01.495Z,99730.34
2023-04-12T19:10:30.889Z,99736.66
2023-04-12T19:12:59.310Z,99737.56
2023-04-12T19:15:27.212Z,99733.16
2023-04-12T19:17:58.319Z,99732.97
2023-04-12T19:20:27.551Z,99740.59
2023-04-12T19:22:55.663Z,99737.59
2023-04-12T19:25:29.543Z,99728.16
2023-04-12T19:28:00.126Z,99730.69
2023-04-12T19:30:28.146Z,99729.69
2023-04-12T19:32:58.971Z,99733.03
2023-04-12T19:35:28.830Z,99734.50
2023-04-12T19:37:57.417Z,99737.25
2023-04-12T19:40:25.342Z,99729.47
2023-04-12T19:42:53.342Z,99727.00
2023-04-12T19:45:21.297Z,99727.38
2023-04-12T19:47:49.394Z,99725.72
2023-04-12T19:50:19.720Z,99732.22
2023-04-12T19:52:48.802Z,99723.41
2023-04-12T19:55:17.801Z,99725.06
2023-04-12T19:57:46.043Z,99726.75
2023-04-12T20:00:19.590Z,99721.53
2023-04-12T20:02:47.509Z,99711.09
2023-04-12T20:05:15.798Z,99712.06
2023-04-12T20:07:45.268Z,99712.41
2023-04-12T20:10:15.414Z,99710.25
2023-04-12T20:12:44.525Z,99711.47
2023-04-12T20:15:13.715Z,99712.81
2023-04-12T20:17:42.957Z,99709.19
2023-04-12T20:20:12.769Z,99709.28
2023-04-12T20:22:41.134Z,99710.06
2023-04-12T20:25:11.153Z,99711.09
2023-04-12T20:27:39.706Z,99710.16
2023-04-12T20:30:11.357Z,99715.09
2023-04-12T20:32:39.556Z,99708.03
2023-04-12T20:35:09.213Z,99711.56
2023-04-12T20:37:37.676Z,99707.53
2023-04-12T20:40:09.815Z,99710.81
2023-04-12T20:42:39.301Z,99700.81
2023-04-12T20:45:08.441Z,99693.38
2023-04-12T20:47:37.993Z,99695.03
2023-04-12T20:50:07.456Z,99694.72
2023-04-12T20:52:35.308Z,99693.47
2023-04-12T20:55:05.925Z,99692.81
2023-04-12T20:57:34.642Z,99689.09
2023-04-12T21:00:12.481Z,99688.28
2023-04-12T21:02:40.584Z,99685.63
2023-04-12T21:05:08.925Z,99681.78
2023-04-12T21:07:37.494Z,99680.19
2023-04-12T21:10:06.077Z,99687.69
2023-04-12T21:12:35.455Z,99681.31
2023-04-12T21:15:05.980Z,99679.59
2023-04-12T21:17:34.321Z,99669.81
2023-04-12T21:20:07.288Z,99667.75
2023-04-12T21:22:35.036Z,99660.81
2023-04-12T21:25:02.916Z,99668.81
2023-04-12T21:27:31.022Z,99662.97
2023-04-12T21:29:58.963Z,99661.63
2023-04-12T21:32:30.180Z,99658.91
2023-04-12T21:34:58.631Z,99648.50
2023-04-12T21:37:27.040Z,99650.66
2023-04-12T21:39:55.558Z,99656.72
2023-04-12T21:42:23.544Z,99656.00
2023-04-12T21:44:51.589Z,99648.50
2023-04-12T21:47:20.051Z,99646.63
2023-04-12T21:49:49.230Z,99643.16
2023-04-12T21:52:17.035Z,99645.13
2023-04-12T21:54:44.782Z,99638.47
2023-04-12T21:57:12.464Z,99640.66
2023-04-12T21:59:42.553Z,99635.38
2023-04-12T22:02:10.554Z,99638.34
2023-04-12T22:04:38.400Z,99638.47
2023-04-12T22:07:10.326Z,99641.84
2023-04-12T22:09:38.131Z,99636.97
2023-04-12T22:12:08.748Z,99635.94
2023-04-12T22:14:37.585Z,99638.47
2023-04-12T22:17:06.758Z,99631.94
2023-04-12T22:19:34.658Z,99632.94
2023-04-12T22:22:02.947Z,99631.28
2023-04-12T22:24:32.407Z,99620.94
2023-04-12T22:27:01.324Z,99620.00
2023-04-12T22:29:30.492Z,99611.13
2023-04-12T22:31:58.392Z,99602.88
2023-04-12T22:34:27.745Z,99601.38
2023-04-12T22:36:58.857Z,99605.22
2023-04-12T22:39:27.670Z,99608.31
2023-04-12T22:41:57.448Z,99601.22
2023-04-12T22:44:26.943Z,99595.34
2023-04-12T22:46:56.658Z,99598.50
2023-04-12T22:49:28.127Z,99585.53
2023-04-12T22:51:56.596Z,99576.91
2023-04-12T22:54:24.921Z,99578.63
2023-04-12T22:56:53.046Z,99573.78
2023-04-12T22:59:23.360Z,99570.31
2023-04-12T23:01:51.430Z,99560.06
2023-04-12T23:04:19.347Z,99559.69
2023-04-12T23:06:47.637Z,99555.09
2023-04-12T23:09:15.860Z,99548.34
2023-04-12T23:11:44.086Z,99552.16
2023-04-12T23:14:12.939Z,99548.97
2023-04-12T23:16:47.761Z,99540.44
2023-04-12T23:19:19.459Z,99537.63
2023-04-12T23:21:47.790Z,99527.50
2023-04-12T23:24:16.584Z,99524.78
2023-04-12T23:26:45.404Z,99512.88
2023-04-12T23:29:13.934Z,99504.56
2023-04-12T23:31:45.260Z,99506.03
2023-04-12T23:34:13.531Z,99516.84
2023-04-12T23:36:41.241Z,99496.72
2023-04-12T23:39:09.220Z,99507.13
2023-04-12T23:41:37.119Z,99495.88
2023-04-12T23:44:05.496Z,99491.44
2023-04-12T23:46:33.189Z,99493.38
2023-04-12T23:49:02.842Z,99481.75
2023-04-12T23:51:30.673Z,99470.03
2023-04-12T23:53:58.737Z,99469.47
2023-04-12T23:56:27.241Z,99462.66
2023-04-12T23:58:55.859Z,99471.09
